Crested Butte, CO

10:56 PM MDT on September 18, 2014 (GMT -0600)
Crested Butte South | Change Station
CLOSE
Current Station
Personal Weather Station
Location: Crested Butte, CO
Elevation: 8665 ft
Nearby Weather Stations

Elev 8665 ft 38.81 °N, 106.89 °W | Updated 4 minutes ago

Clear
Clear
47.0 °F
Feels Like 44 °F
N
6.0
Wind Variable Wind from NNW
Gusts 8.0 mph

Today
High -- | Low -- °F
--% Chance of Precip.
Yesterday
High -- | Low -- °F
Precip. -- in
6:51 AM 7:10 PM
Waning Crescent, 22% visible
Pressure 30.20 in
Visibility 10.0 miles
Clouds Clear
Windchill 44 °F
Dew Point 39 °F
Humidity 73%
Rainfall -999.00 in
Snow Depth 0 in , 0 in , 0 in
UV 0 out of 12
Pollen 5.70 out of 12
Air Quality Not available.
Flu Activity Not available.
METAR KGUC 190435Z AUTO 02003KT 10SM CLR 12/01 A3020 RMK AO1

More Conditions Fewer Conditions

Pressure 30.20 in
Visibility 10.0 miles
Clouds Clear
Windchill 44 °F
Dew Point 39 °F
Humidity 73%
Rainfall -999.00 in
Snow Depth 0 in , 0 in , 0 in
UV 0 out of 12
Pollen 5.70 out of 12
Air Quality Not available.
Flu Activity Not available.
METAR KGUC 190435Z AUTO 02003KT 10SM CLR 12/01 A3020 RMK AO1

More Conditions Fewer Conditions

10-Day Weather Forecast

Almanac

Astronomy

Sep. 18, 2014 Rise Set
Actual Time 6:51 AM MDT 7:10 PM MDT
Civil Twilight 6:25 AM MDT 7:37 PM MDT
Nautical Twilight 5:53 AM MDT 8:08 PM MDT
Astronomical Twilight 5:21 AM MDT 8:40 PM MDT
Moon 1:48 AM MDT (9/18) 4:01 PM MDT (9/18)
Length of Visible Light 13h 12m
Length of Day
12h 19m
Tomorrow will be 2m 31s shorter.
Waning Crescent, 22% of the Moon is Illuminated
Sep 19
Waning Crescent
Sep 24
New
Oct 1
First Quarter
Oct 8
Full
Oct 15
Last Quarter

Yesterday's Extremes

State Highs State Lows

Community

WunderPhotos

Upload Photos

1,754,558 photos uploaded!

Nearby

Snow Depth

Station Depth Elevation
North Lost Trail 0 in 9200 ft
Echo Lake 0 in 10600 ft
Willow Creek Pass 0 in 9540 ft
Schofield Pass 0 in 10700 ft
Whiskey Creek 0 in 10220 ft

Earthquake Activity

City Distance Mag. Time & Date
No recent earthquake activity has been reported nearby.
Minimum magnitude displayed is 2.5.

Coastal Water Temperatures

Place Temperature
No Stations Reporting

Nearby Weather Stations